createdAt,value
2022-08-22T00:00:15.010Z,1.33
2022-08-22T00:02:54.491Z,1.30
2022-08-22T00:03:11.846Z,1.33
2022-08-22T00:03:15.814Z,1.30
2022-08-22T00:05:58.607Z,1.30
2022-08-22T00:08:29.944Z,1.15
2022-08-22T00:11:34.857Z,1.55
2022-08-22T00:14:20.072Z,1.30
2022-08-22T00:16:57.816Z,1.50
2022-08-22T00:19:31.435Z,1.10
2022-08-22T00:22:47.700Z,1.13
2022-08-22T00:25:31.647Z,1.45
2022-08-22T00:28:06.320Z,1.05
2022-08-22T00:30:42.737Z,1.15
2022-08-22T00:33:21.929Z,2.03
2022-08-22T00:35:53.779Z,1.25
2022-08-22T00:38:28.041Z,1.00
2022-08-22T00:41:33.953Z,1.00
2022-08-22T00:44:23.678Z,1.20
2022-08-22T00:47:20.036Z,1.10
2022-08-22T00:49:59.621Z,1.48
2022-08-22T00:52:40.373Z,1.10
2022-08-22T00:55:20.536Z,1.13
2022-08-22T00:57:56.363Z,1.23
2022-08-22T01:00:25.934Z,1.17
2022-08-22T01:03:17.398Z,1.30
2022-08-22T01:05:50.128Z,0.85
2022-08-22T01:08:24.826Z,1.15
2022-08-22T01:11:29.170Z,1.00
2022-08-22T01:14:34.914Z,1.00
2022-08-22T01:17:20.524Z,1.00
2022-08-22T01:19:49.667Z,0.98
2022-08-22T01:22:38.747Z,1.10
2022-08-22T01:25:25.914Z,1.10
2022-08-22T01:28:11.396Z,1.10
2022-08-22T01:30:56.315Z,0.88
2022-08-22T01:34:05.765Z,1.27
2022-08-22T01:37:06.700Z,0.82
2022-08-22T01:40:05.209Z,0.90
2022-08-22T01:42:49.260Z,0.73
2022-08-22T01:45:24.819Z,1.00
2022-08-22T01:48:01.791Z,1.20
2022-08-22T01:50:35.548Z,0.90
2022-08-22T01:53:19.722Z,0.85
2022-08-22T01:56:19.567Z,0.90
2022-08-22T01:59:01.668Z,0.98
2022-08-22T02:01:49.628Z,1.30
2022-08-22T02:04:20.625Z,1.10
2022-08-22T02:07:06.678Z,1.10
2022-08-22T02:09:46.599Z,1.00
2022-08-22T02:12:32.642Z,1.10
2022-08-22T02:15:14.294Z,1.40
2022-08-22T02:17:55.930Z,1.10
2022-08-22T02:20:40.760Z,1.25
2022-08-22T02:23:37.115Z,1.27
2022-08-22T02:26:17.695Z,1.50
2022-08-22T02:29:01.344Z,1.30
2022-08-22T02:31:42.630Z,1.40
2022-08-22T02:34:28.493Z,1.33
2022-08-22T02:37:11.295Z,1.30
2022-08-22T02:39:52.990Z,1.05
2022-08-22T02:42:28.467Z,1.20
2022-08-22T02:45:12.157Z,1.27
2022-08-22T02:47:46.414Z,1.00
2022-08-22T02:50:23.690Z,1.10
2022-08-22T02:52:54.284Z,1.67
2022-08-22T02:55:39.484Z,1.35
2022-08-22T02:58:36.432Z,1.35
2022-08-22T03:01:02.828Z,1.00
2022-08-22T03:03:36.310Z,1.10
2022-08-22T03:06:27.412Z,1.30
2022-08-22T03:09:15.494Z,1.30
2022-08-22T03:12:21.543Z,1.20
2022-08-22T03:15:00.192Z,1.25
2022-08-22T03:17:52.550Z,1.10
2022-08-22T03:20:42.271Z,0.98
2022-08-22T03:23:28.155Z,1.17
2022-08-22T03:26:09.897Z,1.00
2022-08-22T03:28:59.585Z,1.00
2022-08-22T03:31:28.777Z,1.10
2022-08-22T03:34:25.146Z,1.23
2022-08-22T03:37:10.224Z,0.90
2022-08-22T03:39:39.357Z,1.13
2022-08-22T03:42:22.250Z,0.90
2022-08-22T03:45:15.399Z,1.27
2022-08-22T03:48:16.393Z,1.15
2022-08-22T03:51:12.107Z,1.30
2022-08-22T03:54:12.499Z,1.02
2022-08-22T03:57:00.490Z,1.33
2022-08-22T04:00:01.407Z,1.40
2022-08-22T04:03:06.492Z,1.13
2022-08-22T04:06:00.539Z,1.23
2022-08-22T04:08:58.377Z,1.48
2022-08-22T04:11:56.335Z,1.00
2022-08-22T04:14:58.135Z,1.33
2022-08-22T04:18:02.248Z,1.25
2022-08-22T04:20:59.808Z,1.40
2022-08-22T04:23:33.521Z,1.30
2022-08-22T04:26:12.931Z,1.27
2022-08-22T04:28:45.607Z,1.27
2022-08-22T04:31:15.204Z,1.20
2022-08-22T04:33:50.977Z,1.38
2022-08-22T04:36:23.325Z,2.08
2022-08-22T04:39:00.082Z,1.40
2022-08-22T04:41:48.807Z,1.63
2022-08-22T04:44:21.492Z,1.88
2022-08-22T04:47:02.296Z,1.67
2022-08-22T04:49:43.661Z,1.65
2022-08-22T04:52:24.407Z,1.77
2022-08-22T04:55:24.562Z,1.50
2022-08-22T04:58:02.322Z,1.55
2022-08-22T05:01:03.543Z,1.42
2022-08-22T05:03:33.436Z,1.70
2022-08-22T05:06:03.384Z,1.25
2022-08-22T05:08:36.156Z,1.63
2022-08-22T05:11:09.470Z,1.50
2022-08-22T05:13:57.837Z,1.40
2022-08-22T05:16:37.688Z,1.30
2022-08-22T05:19:22.997Z,1.73
2022-08-22T05:21:54.421Z,1.50
2022-08-22T05:24:27.984Z,1.70
2022-08-22T05:26:59.705Z,1.38
2022-08-22T05:29:30.329Z,1.33
2022-08-22T05:32:03.688Z,2.45
2022-08-22T05:34:38.940Z,2.03
2022-08-22T05:37:08.339Z,1.73
2022-08-22T05:39:38.338Z,2.00
2022-08-22T05:42:05.459Z,2.38
2022-08-22T05:44:38.089Z,1.92
2022-08-22T05:47:35.212Z,1.80
2022-08-22T05:50:20.109Z,2.70
2022-08-22T05:53:02.860Z,2.28
2022-08-22T05:56:10.872Z,1.75
2022-08-22T05:58:43.373Z,1.77
2022-08-22T06:01:32.006Z,1.97
2022-08-22T06:04:07.074Z,2.00
2022-08-22T06:06:57.425Z,2.35
2022-08-22T06:09:46.662Z,2.50
2022-08-22T06:12:22.775Z,2.05
2022-08-22T06:15:11.874Z,2.47
2022-08-22T06:17:47.115Z,2.42
2022-08-22T06:20:19.727Z,2.72
2022-08-22T06:22:54.079Z,2.17
2022-08-22T06:25:26.479Z,2.47
2022-08-22T06:27:54.403Z,2.50
2022-08-22T06:30:21.752Z,2.20
2022-08-22T06:32:59.095Z,2.70
2022-08-22T06:36:13.371Z,2.33
2022-08-22T06:39:17.054Z,2.88
2022-08-22T06:41:52.421Z,2.57
2022-08-22T06:44:24.090Z,2.55
2022-08-22T06:46:54.582Z,2.35
2022-08-22T06:49:23.767Z,3.00
2022-08-22T06:51:51.156Z,2.78
2022-08-22T06:54:25.042Z,2.87
2022-08-22T06:56:53.956Z,2.75
2022-08-22T06:59:27.413Z,2.90
2022-08-22T07:02:01.396Z,2.35
2022-08-22T07:04:28.865Z,3.65
2022-08-22T07:06:58.877Z,3.00
2022-08-22T07:09:32.481Z,2.70
2022-08-22T07:12:02.849Z,2.85
2022-08-22T07:14:40.153Z,3.42
2022-08-22T07:17:09.452Z,2.58
2022-08-22T07:19:40.253Z,3.17
2022-08-22T07:22:21.779Z,2.53
2022-08-22T07:24:52.743Z,3.10
2022-08-22T07:27:37.592Z,3.10
2022-08-22T07:30:13.992Z,3.40
2022-08-22T07:32:51.781Z,3.43
2022-08-22T07:35:23.362Z,3.25
2022-08-22T07:37:56.365Z,3.00
2022-08-22T07:40:37.965Z,3.15
2022-08-22T07:43:04.383Z,2.90
2022-08-22T07:45:52.799Z,3.40
2022-08-22T07:48:26.868Z,2.80
2022-08-22T07:50:59.033Z,3.15
2022-08-22T07:53:34.242Z,3.17
2022-08-22T07:56:02.971Z,2.80
2022-08-22T07:58:33.845Z,3.23
2022-08-22T08:01:01.251Z,3.17
2022-08-22T08:03:30.427Z,3.30
2022-08-22T08:05:57.533Z,3.38
2022-08-22T08:08:38.307Z,3.45
2022-08-22T08:11:08.182Z,3.03
2022-08-22T08:13:40.440Z,2.80
2022-08-22T08:16:15.873Z,3.13
2022-08-22T08:18:44.647Z,3.42
2022-08-22T08:21:36.911Z,3.08
2022-08-22T08:24:07.445Z,3.57
2022-08-22T08:26:39.937Z,3.70
2022-08-22T08:29:07.288Z,3.13
2022-08-22T08:31:43.075Z,3.13
2022-08-22T08:34:18.568Z,3.35
2022-08-22T08:36:54.059Z,2.80
2022-08-22T08:39:23.456Z,2.92
2022-08-22T08:41:49.997Z,2.95
2022-08-22T08:44:40.872Z,2.90
2022-08-22T08:47:34.484Z,3.10
2022-08-22T08:50:22.622Z,2.97
2022-08-22T08:53:12.043Z,3.08
2022-08-22T08:56:06.239Z,3.10
2022-08-22T08:58:47.583Z,3.15
2022-08-22T09:01:27.575Z,3.50
2022-08-22T09:04:15.069Z,3.30
2022-08-22T09:07:01.304Z,3.65
2022-08-22T09:09:57.460Z,3.70
2022-08-22T09:12:38.259Z,3.20
2022-08-22T09:16:05.036Z,3.38
2022-08-22T09:19:10.446Z,2.93
2022-08-22T09:22:02.043Z,3.00
2022-08-22T09:24:48.814Z,3.63
2022-08-22T09:27:39.044Z,3.28
2022-08-22T09:30:12.440Z,2.97
2022-08-22T09:32:44.582Z,2.97
2022-08-22T09:35:44.513Z,2.92
2022-08-22T09:38:36.454Z,3.20
2022-08-22T09:41:41.114Z,3.88
2022-08-22T09:44:16.283Z,2.83
2022-08-22T09:47:05.842Z,3.07
2022-08-22T09:50:17.022Z,2.88
2022-08-22T09:53:00.395Z,3.20
2022-08-22T09:55:43.128Z,3.28
2022-08-22T09:58:31.428Z,3.25
2022-08-22T10:01:02.518Z,2.63
2022-08-22T10:03:54.702Z,3.28
2022-08-22T10:06:27.712Z,3.15
2022-08-22T10:09:10.593Z,3.47
2022-08-22T10:11:54.996Z,3.35
2022-08-22T10:14:28.511Z,2.60
2022-08-22T10:17:21.880Z,2.90
2022-08-22T10:19:58.807Z,2.88
2022-08-22T10:23:10.735Z,2.70
2022-08-22T10:25:51.312Z,3.58
2022-08-22T10:28:31.429Z,3.13
2022-08-22T10:31:18.910Z,2.40
2022-08-22T10:34:07.996Z,2.85
2022-08-22T10:37:12.070Z,2.40
2022-08-22T10:39:47.583Z,2.30
2022-08-22T10:42:30.142Z,2.37
2022-08-22T10:45:04.320Z,3.10
2022-08-22T10:47:39.212Z,2.35
2022-08-22T10:50:31.181Z,2.75
2022-08-22T10:53:29.601Z,2.70
2022-08-22T10:56:23.464Z,2.20
2022-08-22T10:59:07.944Z,2.90
2022-08-22T11:01:47.036Z,2.28
2022-08-22T11:04:44.284Z,2.47
2022-08-22T11:07:13.324Z,2.30
2022-08-22T11:09:43.219Z,3.30
2022-08-22T11:12:42.639Z,2.00
2022-08-22T11:15:43.127Z,2.40
2022-08-22T11:18:36.617Z,2.10
2022-08-22T11:21:10.913Z,2.80
2022-08-22T11:23:45.079Z,1.80
2022-08-22T11:26:47.519Z,1.90
2022-08-22T11:29:38.616Z,1.88
2022-08-22T11:32:16.928Z,1.58
2022-08-22T11:34:47.803Z,2.10
2022-08-22T11:37:42.177Z,2.90
2022-08-22T11:40:35.580Z,2.08
2022-08-22T11:43:32.466Z,2.28
2022-08-22T11:46:13.843Z,2.00
2022-08-22T11:49:04.637Z,2.00
2022-08-22T11:51:53.063Z,1.63
2022-08-22T11:54:43.129Z,1.70
2022-08-22T11:57:25.867Z,1.90
2022-08-22T11:59:55.748Z,1.67
2022-08-22T12:02:47.693Z,2.42
2022-08-22T12:05:24.483Z,2.00
2022-08-22T12:08:03.741Z,2.25
2022-08-22T12:10:34.123Z,1.90
2022-08-22T12:13:13.363Z,2.10
2022-08-22T12:15:53.946Z,2.00
2022-08-22T12:18:44.987Z,1.77
2022-08-22T12:21:39.392Z,1.58
2022-08-22T12:24:40.869Z,1.92
2022-08-22T12:27:37.923Z,2.17
2022-08-22T12:30:18.211Z,1.70
2022-08-22T12:32:59.138Z,1.70
2022-08-22T12:35:30.318Z,1.58
2022-08-22T12:38:28.216Z,1.77
2022-08-22T12:41:08.601Z,2.33
2022-08-22T12:44:00.982Z,2.05
2022-08-22T12:47:02.013Z,1.80
2022-08-22T12:49:52.932Z,1.83
2022-08-22T12:52:52.303Z,1.38
2022-08-22T12:55:33.680Z,1.77
2022-08-22T12:58:23.307Z,1.73
2022-08-22T13:00:50.751Z,1.93
2022-08-22T13:03:32.525Z,1.70
2022-08-22T13:06:05.056Z,1.40
2022-08-22T13:08:44.491Z,1.50
2022-08-22T13:11:22.740Z,1.70
2022-08-22T13:13:56.060Z,1.50
2022-08-22T13:16:25.371Z,1.77
2022-08-22T13:19:08.028Z,2.00
2022-08-22T13:21:46.697Z,1.50
2022-08-22T13:24:51.861Z,1.65
2022-08-22T13:27:29.824Z,1.60
2022-08-22T13:30:00.862Z,1.70
2022-08-22T13:32:44.376Z,1.48
2022-08-22T13:35:23.928Z,1.80
2022-08-22T13:37:57.264Z,1.25
2022-08-22T13:40:34.032Z,1.50
2022-08-22T13:43:11.140Z,1.50
2022-08-22T13:45:40.541Z,1.40
2022-08-22T13:48:13.775Z,1.60
2022-08-22T13:51:04.627Z,1.42
2022-08-22T13:53:36.233Z,1.63
2022-08-22T13:56:15.659Z,1.63
2022-08-22T13:58:50.440Z,1.45
2022-08-22T14:01:31.088Z,1.45
2022-08-22T14:04:28.297Z,1.40
2022-08-22T14:07:23.799Z,1.73
2022-08-22T14:10:15.010Z,1.30
2022-08-22T14:13:11.178Z,1.70
2022-08-22T14:15:45.717Z,1.02
2022-08-22T14:18:16.020Z,1.02
2022-08-22T14:20:47.585Z,1.30
2022-08-22T14:23:29.477Z,1.30
2022-08-22T14:25:57.272Z,1.33
2022-08-22T14:28:34.060Z,1.25
2022-08-22T14:31:07.421Z,1.45
2022-08-22T14:33:39.784Z,1.10
2022-08-22T14:36:19.745Z,2.50
2022-08-22T14:39:22.287Z,1.60
2022-08-22T14:41:58.623Z,1.40
2022-08-22T14:44:43.901Z,1.30
2022-08-22T14:47:55.449Z,1.30
2022-08-22T14:50:53.003Z,1.30
2022-08-22T14:53:19.734Z,1.40
2022-08-22T14:56:06.496Z,1.40
2022-08-22T14:58:37.772Z,1.33
2022-08-22T15:01:11.569Z,1.33
2022-08-22T15:03:40.885Z,1.25
2022-08-22T15:06:17.043Z,1.30
2022-08-22T15:08:50.685Z,1.58
2022-08-22T15:11:17.008Z,1.27
2022-08-22T15:13:53.005Z,1.30
2022-08-22T15:16:24.863Z,1.25
2022-08-22T15:18:51.955Z,1.40
2022-08-22T15:21:24.352Z,1.30
2022-08-22T15:23:54.394Z,1.30
2022-08-22T15:26:41.275Z,1.40
2022-08-22T15:29:17.455Z,0.95
2022-08-22T15:31:46.837Z,1.17
2022-08-22T15:34:21.648Z,1.13
2022-08-22T15:37:09.935Z,1.20
2022-08-22T15:40:12.659Z,1.30
2022-08-22T15:42:45.395Z,0.90
2022-08-22T15:45:34.038Z,1.10
2022-08-22T15:48:04.505Z,1.10
2022-08-22T15:51:02.754Z,1.10
2022-08-22T15:53:44.464Z,1.27
2022-08-22T15:56:10.786Z,1.45
2022-08-22T15:58:48.124Z,1.35
2022-08-22T16:01:20.464Z,1.13
2022-08-22T16:03:56.779Z,1.33
2022-08-22T16:06:42.396Z,1.10
2022-08-22T16:09:29.130Z,1.10
2022-08-22T16:11:57.285Z,1.17
2022-08-22T16:14:35.981Z,1.00
2022-08-22T16:17:25.464Z,1.27
2022-08-22T16:20:19.499Z,1.20
2022-08-22T16:22:58.884Z,1.60
2022-08-22T16:25:44.260Z,1.33
2022-08-22T16:28:56.786Z,1.02
2022-08-22T16:31:29.295Z,1.30
2022-08-22T16:34:17.360Z,1.50
2022-08-22T16:37:04.029Z,1.13
2022-08-22T16:40:06.747Z,1.40
2022-08-22T16:42:36.266Z,1.52
2022-08-22T16:45:02.781Z,1.70
2022-08-22T16:47:40.661Z,1.27
2022-08-22T16:50:25.402Z,1.33
2022-08-22T16:52:59.644Z,1.40
2022-08-22T16:55:29.208Z,1.33
2022-08-22T16:58:13.674Z,1.40
2022-08-22T17:00:46.108Z,1.17
2022-08-22T17:03:49.685Z,1.25
2022-08-22T17:06:33.756Z,1.00
2022-08-22T17:09:40.164Z,1.70
2022-08-22T17:12:24.608Z,1.20
2022-08-22T17:15:06.796Z,1.73
2022-08-22T17:17:59.585Z,1.92
2022-08-22T17:21:01.541Z,1.20
2022-08-22T17:23:35.400Z,1.58
2022-08-22T17:26:04.542Z,1.60
2022-08-22T17:28:56.016Z,1.50
2022-08-22T17:31:54.095Z,1.30
2022-08-22T17:34:32.355Z,1.25
2022-08-22T17:37:23.251Z,1.30
2022-08-22T17:40:19.211Z,1.35
2022-08-22T17:43:01.622Z,1.20
2022-08-22T17:45:43.137Z,1.17
2022-08-22T17:48:18.543Z,1.60
2022-08-22T17:50:55.996Z,1.90
2022-08-22T17:53:28.909Z,1.42
2022-08-22T17:56:06.643Z,1.00
2022-08-22T17:58:44.124Z,1.48
2022-08-22T18:01:37.739Z,1.20
2022-08-22T18:04:08.380Z,1.65
2022-08-22T18:06:43.935Z,1.67
2022-08-22T18:09:26.278Z,1.60
2022-08-22T18:12:01.058Z,1.40
2022-08-22T18:14:45.032Z,1.60
2022-08-22T18:17:33.020Z,1.58
2022-08-22T18:20:10.236Z,1.38
2022-08-22T18:22:39.765Z,1.70
2022-08-22T18:25:18.102Z,1.50
2022-08-22T18:27:53.710Z,1.23
2022-08-22T18:30:28.432Z,1.50
2022-08-22T18:33:05.944Z,1.70
2022-08-22T18:35:53.884Z,1.50
2022-08-22T18:38:25.084Z,1.27
2022-08-22T18:41:08.885Z,1.45
2022-08-22T18:43:41.604Z,1.40
2022-08-22T18:46:40.851Z,1.30
2022-08-22T18:49:15.434Z,1.47
2022-08-22T18:51:43.529Z,1.52
2022-08-22T18:54:11.396Z,1.17
2022-08-22T18:56:47.900Z,1.52
2022-08-22T18:59:46.858Z,1.75
2022-08-22T19:02:16.267Z,1.60
2022-08-22T19:04:54.652Z,1.55
2022-08-22T19:07:30.106Z,1.70
2022-08-22T19:10:52.809Z,1.58
2022-08-22T19:14:05.606Z,1.38
2022-08-22T19:16:59.609Z,1.30
2022-08-22T19:20:15.647Z,1.48
2022-08-22T19:22:43.115Z,1.92
2022-08-22T19:25:18.460Z,1.73
2022-08-22T19:28:08.721Z,1.45
2022-08-22T19:31:16.733Z,1.47
2022-08-22T19:33:49.743Z,1.55
2022-08-22T19:36:31.199Z,1.67
2022-08-22T19:39:10.448Z,1.52
2022-08-22T19:41:44.210Z,1.40
2022-08-22T19:44:32.865Z,1.60
2022-08-22T19:47:20.774Z,1.33
2022-08-22T19:49:50.086Z,1.90
2022-08-22T19:52:16.575Z,1.40
2022-08-22T19:54:51.809Z,1.67
2022-08-22T19:57:55.342Z,1.57
2022-08-22T20:00:26.613Z,1.50
2022-08-22T20:03:13.443Z,1.60
2022-08-22T20:06:22.137Z,1.52
2022-08-22T20:09:27.734Z,1.60
2022-08-22T20:12:24.352Z,1.50
2022-08-22T20:14:51.663Z,1.70
2022-08-22T20:17:24.053Z,1.33
2022-08-22T20:20:18.563Z,1.42
2022-08-22T20:23:05.103Z,1.80
2022-08-22T20:25:53.020Z,1.83
2022-08-22T20:28:31.899Z,1.40
2022-08-22T20:31:02.341Z,1.80
2022-08-22T20:33:37.037Z,2.00
2022-08-22T20:36:13.801Z,1.50
2022-08-22T20:38:58.652Z,1.73
2022-08-22T20:41:40.963Z,1.60
2022-08-22T20:44:22.680Z,1.77
2022-08-22T20:46:53.490Z,2.13
2022-08-22T20:49:41.629Z,2.25
2022-08-22T20:52:11.350Z,2.00
2022-08-22T20:54:41.005Z,2.05
2022-08-22T20:57:19.308Z,1.85
2022-08-22T20:59:55.840Z,2.10
2022-08-22T21:02:32.228Z,2.00
2022-08-22T21:05:18.659Z,1.83
2022-08-22T21:07:48.105Z,1.90
2022-08-22T21:10:42.965Z,1.90
2022-08-22T21:13:17.367Z,1.75
2022-08-22T21:15:47.532Z,1.60
2022-08-22T21:18:30.873Z,1.87
2022-08-22T21:21:08.360Z,2.20
2022-08-22T21:23:47.645Z,1.80
2022-08-22T21:26:24.600Z,1.90
2022-08-22T21:28:57.266Z,1.63
2022-08-22T21:31:27.173Z,2.33
2022-08-22T21:33:55.631Z,1.90
2022-08-22T21:36:27.420Z,1.77
2022-08-22T21:38:57.772Z,2.10
2022-08-22T21:41:32.022Z,1.98
2022-08-22T21:44:34.452Z,2.20
2022-08-22T21:47:31.162Z,1.95
2022-08-22T21:50:09.737Z,1.90
2022-08-22T21:52:39.086Z,2.20
2022-08-22T21:55:26.236Z,1.52
2022-08-22T21:58:04.412Z,1.93
2022-08-22T22:00:57.364Z,1.73
2022-08-22T22:03:36.016Z,1.75
2022-08-22T22:06:05.978Z,1.60
2022-08-22T22:08:33.684Z,1.38
2022-08-22T22:11:06.164Z,1.93
2022-08-22T22:13:35.115Z,1.85
2022-08-22T22:16:01.640Z,2.05
2022-08-22T22:18:32.829Z,1.80
2022-08-22T22:21:00.418Z,1.88
2022-08-22T22:23:27.923Z,2.10
2022-08-22T22:25:57.355Z,2.03
2022-08-22T22:28:29.692Z,1.65
2022-08-22T22:30:56.572Z,2.10
2022-08-22T22:33:28.432Z,1.75
2022-08-22T22:35:57.241Z,2.03
2022-08-22T22:38:24.492Z,1.95
2022-08-22T22:40:51.962Z,2.00
2022-08-22T22:43:18.615Z,1.70
2022-08-22T22:45:45.193Z,2.20
2022-08-22T22:48:12.032Z,1.90
2022-08-22T22:50:44.748Z,2.05
2022-08-22T22:53:11.986Z,2.08
2022-08-22T22:56:00.412Z,2.08
2022-08-22T22:58:28.545Z,2.10
2022-08-22T23:00:55.847Z,2.40
2022-08-22T23:03:23.026Z,1.80
2022-08-22T23:05:49.393Z,1.77
2022-08-22T23:08:15.803Z,2.10
2022-08-22T23:10:42.233Z,2.25
2022-08-22T23:13:09.308Z,2.23
2022-08-22T23:15:37.347Z,2.00
2022-08-22T23:18:03.887Z,1.90
2022-08-22T23:20:30.419Z,1.98
2022-08-22T23:22:56.983Z,1.70
2022-08-22T23:25:23.388Z,2.57
2022-08-22T23:27:52.196Z,2.20
2022-08-22T23:30:19.481Z,2.65
2022-08-22T23:32:45.856Z,1.90
2022-08-22T23:35:12.268Z,2.38
2022-08-22T23:37:38.683Z,2.13
2022-08-22T23:40:08.021Z,2.30
2022-08-22T23:42:34.894Z,2.63
2022-08-22T23:45:01.297Z,2.33
2022-08-22T23:47:27.880Z,2.15
2022-08-22T23:49:54.498Z,2.30
2022-08-22T23:52:20.881Z,2.47
2022-08-22T23:54:47.892Z,2.30
2022-08-22T23:57:21.050Z,2.05
2022-08-22T23:59:58.393Z,2.50
